Terminal Aerodrome Forecast
Issued by NWS Cleveland, OH

Home | Current Version | Previous Version | Text Only | Print | Product List | Glossary On
Versions: 1 2 3 4 5 6 7 8 9 10 11 12 13 14 15 16 17 18 19 20 21 22 23 24 25
000
FTUS41 KCLE 231738
TAFERI
TAF
KERI 231738Z 2318/2418 16015G27KT 5SM -RA BR SCT009 OVC020
     FM232000 23015G25KT 6SM -RA BR SCT005 OVC010
     FM232200 24013KT 2SM BR VCSH OVC005
     FM240200 26010KT 1SM BR OVC003
     FM241100 00000KT 2SM BR OVC007
     FM241600 04006KT P6SM OVC015=

USA.gov is the U.S. government's official web portal to all federal, state and local government web resources and services.